sensor_id;sensor_type;location;lat;lon;timestamp;P1;durP1;ratioP1;P2;durP2;ratioP2
19329;SDS011;9799;48.214;16.388;2023-03-23T00:01:37;12.90;;;10.60;;
19329;SDS011;9799;48.214;16.388;2023-03-23T00:04:58;16.43;;;10.67;;
19329;SDS011;9799;48.214;16.388;2023-03-23T00:08:20;14.43;;;11.10;;
19329;SDS011;9799;48.214;16.388;2023-03-23T00:11:41;15.40;;;11.63;;
19329;SDS011;9799;48.214;16.388;2023-03-23T00:15:05;19.07;;;10.43;;
19329;SDS011;9799;48.214;16.388;2023-03-23T00:18:32;14.30;;;10.93;;
19329;SDS011;9799;48.214;16.388;2023-03-23T00:21:55;14.73;;;11.50;;
19329;SDS011;9799;48.214;16.388;2023-03-23T00:25:19;12.83;;;11.20;;
19329;SDS011;9799;48.214;16.388;2023-03-23T00:28:41;11.87;;;10.63;;
19329;SDS011;9799;48.214;16.388;2023-03-23T00:32:03;13.17;;;11.20;;
19329;SDS011;9799;48.214;16.388;2023-03-23T00:35:25;14.83;;;11.03;;
19329;SDS011;9799;48.214;16.388;2023-03-23T00:38:46;12.77;;;10.80;;
19329;SDS011;9799;48.214;16.388;2023-03-23T00:42:08;13.00;;;10.97;;
19329;SDS011;9799;48.214;16.388;2023-03-23T00:45:29;13.70;;;10.90;;
19329;SDS011;9799;48.214;16.388;2023-03-23T00:48:55;12.53;;;10.03;;
19329;SDS011;9799;48.214;16.388;2023-03-23T00:52:17;18.53;;;10.33;;
19329;SDS011;9799;48.214;16.388;2023-03-23T00:55:39;14.10;;;11.93;;
19329;SDS011;9799;48.214;16.388;2023-03-23T00:59:01;12.83;;;10.70;;
19329;SDS011;9799;48.214;16.388;2023-03-23T01:02:23;12.07;;;10.33;;
19329;SDS011;9799;48.214;16.388;2023-03-23T01:05:46;13.47;;;11.53;;
19329;SDS011;9799;48.214;16.388;2023-03-23T01:09:12;11.40;;;10.07;;
19329;SDS011;9799;48.214;16.388;2023-03-23T01:12:35;10.63;;;9.60;;
19329;SDS011;9799;48.214;16.388;2023-03-23T01:15:57;12.90;;;10.73;;
19329;SDS011;9799;48.214;16.388;2023-03-23T01:19:18;12.10;;;9.80;;
19329;SDS011;9799;48.214;16.388;2023-03-23T01:22:40;11.60;;;10.20;;
19329;SDS011;9799;48.214;16.388;2023-03-23T01:26:03;11.53;;;10.43;;
19329;SDS011;9799;48.214;16.388;2023-03-23T01:29:25;12.43;;;10.50;;
19329;SDS011;9799;48.214;16.388;2023-03-23T01:32:46;14.67;;;10.83;;
19329;SDS011;9799;48.214;16.388;2023-03-23T01:36:09;13.63;;;11.33;;
19329;SDS011;9799;48.214;16.388;2023-03-23T01:39:33;13.37;;;10.73;;
19329;SDS011;9799;48.214;16.388;2023-03-23T01:42:56;15.17;;;10.97;;
19329;SDS011;9799;48.214;16.388;2023-03-23T01:46:17;16.53;;;11.77;;
19329;SDS011;9799;48.214;16.388;2023-03-23T01:49:39;18.03;;;11.83;;
19329;SDS011;9799;48.214;16.388;2023-03-23T01:53:04;13.73;;;11.07;;
19329;SDS011;9799;48.214;16.388;2023-03-23T01:56:31;12.27;;;10.63;;
19329;SDS011;9799;48.214;16.388;2023-03-23T02:00:01;13.10;;;10.63;;
19329;SDS011;9799;48.214;16.388;2023-03-23T02:03:34;15.13;;;11.07;;
19329;SDS011;9799;48.214;16.388;2023-03-23T02:06:57;16.10;;;10.57;;
19329;SDS011;9799;48.214;16.388;2023-03-23T02:10:19;12.73;;;10.17;;
19329;SDS011;9799;48.214;16.388;2023-03-23T02:13:42;13.73;;;10.70;;
19329;SDS011;9799;48.214;16.388;2023-03-23T02:17:04;13.83;;;11.10;;
19329;SDS011;9799;48.214;16.388;2023-03-23T02:20:33;16.63;;;11.00;;
19329;SDS011;9799;48.214;16.388;2023-03-23T02:24:30;18.93;;;11.47;;
19329;SDS011;9799;48.214;16.388;2023-03-23T02:28:18;12.00;;;10.40;;
19329;SDS011;9799;48.214;16.388;2023-03-23T02:31:56;12.20;;;10.73;;
19329;SDS011;9799;48.214;16.388;2023-03-23T02:35:30;12.80;;;10.77;;
19329;SDS011;9799;48.214;16.388;2023-03-23T02:38:56;15.17;;;11.00;;
19329;SDS011;9799;48.214;16.388;2023-03-23T02:42:21;12.47;;;10.00;;
19329;SDS011;9799;48.214;16.388;2023-03-23T02:45:46;11.43;;;10.33;;
19329;SDS011;9799;48.214;16.388;2023-03-23T02:49:11;13.30;;;9.90;;
19329;SDS011;9799;48.214;16.388;2023-03-23T02:52:37;11.00;;;9.90;;
19329;SDS011;9799;48.214;16.388;2023-03-23T02:56:00;14.77;;;10.03;;
19329;SDS011;9799;48.214;16.388;2023-03-23T02:59:24;13.03;;;9.67;;
19329;SDS011;9799;48.214;16.388;2023-03-23T03:02:45;13.50;;;9.03;;
19329;SDS011;9799;48.214;16.388;2023-03-23T03:06:14;12.87;;;9.60;;
19329;SDS011;9799;48.214;16.388;2023-03-23T03:09:44;10.73;;;9.63;;
19329;SDS011;9799;48.214;16.388;2023-03-23T03:13:11;12.00;;;8.63;;
19329;SDS011;9799;48.214;16.388;2023-03-23T03:16:42;10.77;;;8.53;;
19329;SDS011;9799;48.214;16.388;2023-03-23T03:20:06;8.53;;;7.67;;
19329;SDS011;9799;48.214;16.388;2023-03-23T03:23:30;12.30;;;8.60;;
19329;SDS011;9799;48.214;16.388;2023-03-23T03:26:57;8.97;;;8.03;;
19329;SDS011;9799;48.214;16.388;2023-03-23T03:30:21;9.27;;;8.13;;
19329;SDS011;9799;48.214;16.388;2023-03-23T03:33:46;9.07;;;7.87;;
19329;SDS011;9799;48.214;16.388;2023-03-23T03:37:07;8.37;;;7.47;;
19329;SDS011;9799;48.214;16.388;2023-03-23T03:40:31;10.87;;;8.03;;
19329;SDS011;9799;48.214;16.388;2023-03-23T03:43:53;11.07;;;8.57;;
19329;SDS011;9799;48.214;16.388;2023-03-23T03:47:14;11.33;;;8.93;;
19329;SDS011;9799;48.214;16.388;2023-03-23T03:50:35;11.50;;;9.93;;
19329;SDS011;9799;48.214;16.388;2023-03-23T03:53:57;13.60;;;10.07;;
19329;SDS011;9799;48.214;16.388;2023-03-23T03:57:18;15.97;;;10.67;;
19329;SDS011;9799;48.214;16.388;2023-03-23T04:00:41;16.60;;;11.37;;
19329;SDS011;9799;48.214;16.388;2023-03-23T04:04:02;14.63;;;10.60;;
19329;SDS011;9799;48.214;16.388;2023-03-23T04:07:26;21.53;;;10.17;;
19329;SDS011;9799;48.214;16.388;2023-03-23T04:10:48;12.40;;;10.17;;
19329;SDS011;9799;48.214;16.388;2023-03-23T04:14:11;14.30;;;11.17;;
19329;SDS011;9799;48.214;16.388;2023-03-23T04:17:33;13.50;;;10.73;;
19329;SDS011;9799;48.214;16.388;2023-03-23T04:20:56;14.00;;;11.07;;
19329;SDS011;9799;48.214;16.388;2023-03-23T04:24:18;18.27;;;12.37;;
19329;SDS011;9799;48.214;16.388;2023-03-23T04:27:40;18.00;;;12.23;;
19329;SDS011;9799;48.214;16.388;2023-03-23T04:31:05;17.10;;;12.43;;
19329;SDS011;9799;48.214;16.388;2023-03-23T04:34:27;24.77;;;12.20;;
19329;SDS011;9799;48.214;16.388;2023-03-23T04:37:53;15.73;;;11.83;;
19329;SDS011;9799;48.214;16.388;2023-03-23T04:41:14;15.20;;;12.50;;
19329;SDS011;9799;48.214;16.388;2023-03-23T04:44:35;23.10;;;16.97;;
19329;SDS011;9799;48.214;16.388;2023-03-23T04:47:56;18.60;;;14.87;;
19329;SDS011;9799;48.214;16.388;2023-03-23T04:51:19;19.43;;;13.70;;
19329;SDS011;9799;48.214;16.388;2023-03-23T04:54:40;18.00;;;13.27;;
19329;SDS011;9799;48.214;16.388;2023-03-23T04:58:02;16.43;;;12.47;;
19329;SDS011;9799;48.214;16.388;2023-03-23T05:01:23;15.83;;;12.73;;
19329;SDS011;9799;48.214;16.388;2023-03-23T05:04:46;19.13;;;13.83;;
19329;SDS011;9799;48.214;16.388;2023-03-23T05:08:09;17.33;;;13.63;;
19329;SDS011;9799;48.214;16.388;2023-03-23T05:11:30;15.87;;;13.37;;
19329;SDS011;9799;48.214;16.388;2023-03-23T05:14:52;16.77;;;14.30;;
19329;SDS011;9799;48.214;16.388;2023-03-23T05:18:13;26.27;;;18.33;;
19329;SDS011;9799;48.214;16.388;2023-03-23T05:21:35;19.60;;;15.40;;
19329;SDS011;9799;48.214;16.388;2023-03-23T05:24:58;30.73;;;17.23;;
19329;SDS011;9799;48.214;16.388;2023-03-23T05:28:21;29.47;;;15.93;;
19329;SDS011;9799;48.214;16.388;2023-03-23T05:31:42;22.83;;;13.60;;
19329;SDS011;9799;48.214;16.388;2023-03-23T05:35:04;19.63;;;12.83;;
19329;SDS011;9799;48.214;16.388;2023-03-23T05:38:25;19.83;;;11.80;;
19329;SDS011;9799;48.214;16.388;2023-03-23T05:41:48;19.37;;;12.27;;
19329;SDS011;9799;48.214;16.388;2023-03-23T05:45:10;22.33;;;12.47;;
19329;SDS011;9799;48.214;16.388;2023-03-23T05:48:31;18.53;;;12.67;;
19329;SDS011;9799;48.214;16.388;2023-03-23T05:51:52;18.67;;;11.37;;
19329;SDS011;9799;48.214;16.388;2023-03-23T05:55:14;22.53;;;13.27;;
19329;SDS011;9799;48.214;16.388;2023-03-23T05:58:37;28.13;;;12.97;;
19329;SDS011;9799;48.214;16.388;2023-03-23T06:01:58;30.33;;;21.97;;
19329;SDS011;9799;48.214;16.388;2023-03-23T06:05:19;14.57;;;12.93;;
19329;SDS011;9799;48.214;16.388;2023-03-23T06:08:41;14.77;;;12.50;;
19329;SDS011;9799;48.214;16.388;2023-03-23T06:12:04;15.80;;;12.00;;
19329;SDS011;9799;48.214;16.388;2023-03-23T06:15:27;17.37;;;12.30;;
19329;SDS011;9799;48.214;16.388;2023-03-23T06:18:50;14.40;;;11.73;;
19329;SDS011;9799;48.214;16.388;2023-03-23T06:22:12;17.40;;;11.93;;
19329;SDS011;9799;48.214;16.388;2023-03-23T06:25:33;13.97;;;11.10;;
19329;SDS011;9799;48.214;16.388;2023-03-23T06:28:54;21.93;;;12.67;;
19329;SDS011;9799;48.214;16.388;2023-03-23T06:32:18;15.43;;;11.73;;
19329;SDS011;9799;48.214;16.388;2023-03-23T06:35:39;13.17;;;10.57;;
19329;SDS011;9799;48.214;16.388;2023-03-23T06:39:02;19.63;;;12.63;;
19329;SDS011;9799;48.214;16.388;2023-03-23T06:42:24;14.17;;;11.80;;
19329;SDS011;9799;48.214;16.388;2023-03-23T06:45:45;15.40;;;11.53;;
19329;SDS011;9799;48.214;16.388;2023-03-23T06:49:08;15.37;;;12.37;;
19329;SDS011;9799;48.214;16.388;2023-03-23T06:52:30;15.63;;;11.93;;
19329;SDS011;9799;48.214;16.388;2023-03-23T06:55:51;14.87;;;11.80;;
19329;SDS011;9799;48.214;16.388;2023-03-23T06:59:12;19.13;;;11.80;;
19329;SDS011;9799;48.214;16.388;2023-03-23T07:02:33;15.10;;;11.87;;
19329;SDS011;9799;48.214;16.388;2023-03-23T07:05:56;16.43;;;11.53;;
19329;SDS011;9799;48.214;16.388;2023-03-23T07:09:18;14.23;;;12.23;;
19329;SDS011;9799;48.214;16.388;2023-03-23T07:12:39;12.97;;;10.90;;
19329;SDS011;9799;48.214;16.388;2023-03-23T07:16:03;15.10;;;10.77;;
19329;SDS011;9799;48.214;16.388;2023-03-23T07:19:25;13.17;;;11.33;;
19329;SDS011;9799;48.214;16.388;2023-03-23T07:22:48;41.07;;;27.93;;
19329;SDS011;9799;48.214;16.388;2023-03-23T07:26:10;14.27;;;12.77;;
19329;SDS011;9799;48.214;16.388;2023-03-23T07:29:32;16.17;;;11.67;;
19329;SDS011;9799;48.214;16.388;2023-03-23T07:32:54;17.03;;;10.90;;
19329;SDS011;9799;48.214;16.388;2023-03-23T07:36:16;12.73;;;11.40;;
19329;SDS011;9799;48.214;16.388;2023-03-23T07:39:38;16.73;;;12.63;;
19329;SDS011;9799;48.214;16.388;2023-03-23T07:43:00;18.20;;;10.73;;
19329;SDS011;9799;48.214;16.388;2023-03-23T07:46:22;13.87;;;10.37;;
19329;SDS011;9799;48.214;16.388;2023-03-23T07:49:44;11.40;;;10.20;;
19329;SDS011;9799;48.214;16.388;2023-03-23T07:53:05;13.93;;;10.97;;
19329;SDS011;9799;48.214;16.388;2023-03-23T07:56:28;13.63;;;11.13;;
19329;SDS011;9799;48.214;16.388;2023-03-23T07:59:49;11.37;;;10.23;;
19329;SDS011;9799;48.214;16.388;2023-03-23T08:03:11;12.27;;;10.63;;
19329;SDS011;9799;48.214;16.388;2023-03-23T08:06:33;14.30;;;11.63;;
19329;SDS011;9799;48.214;16.388;2023-03-23T08:09:55;15.87;;;11.93;;
19329;SDS011;9799;48.214;16.388;2023-03-23T08:13:17;14.07;;;12.07;;
19329;SDS011;9799;48.214;16.388;2023-03-23T08:16:39;13.53;;;10.93;;
19329;SDS011;9799;48.214;16.388;2023-03-23T08:20:00;12.83;;;10.40;;
19329;SDS011;9799;48.214;16.388;2023-03-23T08:23:27;16.33;;;11.57;;
19329;SDS011;9799;48.214;16.388;2023-03-23T08:26:49;16.97;;;12.00;;
19329;SDS011;9799;48.214;16.388;2023-03-23T08:30:13;12.83;;;10.90;;
19329;SDS011;9799;48.214;16.388;2023-03-23T08:33:36;13.87;;;11.87;;
19329;SDS011;9799;48.214;16.388;2023-03-23T08:36:57;14.17;;;12.77;;
19329;SDS011;9799;48.214;16.388;2023-03-23T08:40:19;17.30;;;11.33;;
19329;SDS011;9799;48.214;16.388;2023-03-23T08:43:42;12.67;;;11.37;;
19329;SDS011;9799;48.214;16.388;2023-03-23T08:47:05;12.43;;;11.13;;
19329;SDS011;9799;48.214;16.388;2023-03-23T08:50:27;16.27;;;10.97;;
19329;SDS011;9799;48.214;16.388;2023-03-23T08:53:49;13.53;;;11.23;;
19329;SDS011;9799;48.214;16.388;2023-03-23T08:57:11;15.33;;;13.37;;
19329;SDS011;9799;48.214;16.388;2023-03-23T09:00:33;12.93;;;11.63;;
19329;SDS011;9799;48.214;16.388;2023-03-23T09:03:56;13.30;;;11.60;;
19329;SDS011;9799;48.214;16.388;2023-03-23T09:07:17;14.33;;;11.93;;
19329;SDS011;9799;48.214;16.388;2023-03-23T09:10:39;13.60;;;11.83;;
19329;SDS011;9799;48.214;16.388;2023-03-23T09:14:00;15.13;;;11.53;;
19329;SDS011;9799;48.214;16.388;2023-03-23T09:17:22;13.60;;;11.77;;
19329;SDS011;9799;48.214;16.388;2023-03-23T09:20:45;19.03;;;11.97;;
19329;SDS011;9799;48.214;16.388;2023-03-23T09:24:07;12.33;;;11.03;;
19329;SDS011;9799;48.214;16.388;2023-03-23T09:27:29;16.13;;;11.37;;
19329;SDS011;9799;48.214;16.388;2023-03-23T09:30:50;13.20;;;11.57;;
19329;SDS011;9799;48.214;16.388;2023-03-23T09:34:12;12.80;;;11.43;;
19329;SDS011;9799;48.214;16.388;2023-03-23T09:37:35;17.60;;;13.37;;
19329;SDS011;9799;48.214;16.388;2023-03-23T09:40:59;14.50;;;12.87;;
19329;SDS011;9799;48.214;16.388;2023-03-23T09:44:28;20.07;;;13.37;;
19329;SDS011;9799;48.214;16.388;2023-03-23T09:48:02;18.77;;;15.07;;
19329;SDS011;9799;48.214;16.388;2023-03-23T09:51:40;16.87;;;14.20;;
19329;SDS011;9799;48.214;16.388;2023-03-23T09:55:07;17.77;;;14.70;;
19329;SDS011;9799;48.214;16.388;2023-03-23T09:58:33;21.50;;;15.80;;
19329;SDS011;9799;48.214;16.388;2023-03-23T10:02:04;19.57;;;14.73;;
19329;SDS011;9799;48.214;16.388;2023-03-23T10:05:34;29.47;;;16.53;;
19329;SDS011;9799;48.214;16.388;2023-03-23T10:08:57;18.00;;;16.17;;
19329;SDS011;9799;48.214;16.388;2023-03-23T10:12:24;19.20;;;16.50;;
19329;SDS011;9799;48.214;16.388;2023-03-23T10:15:49;23.07;;;15.83;;
19329;SDS011;9799;48.214;16.388;2023-03-23T10:19:12;19.17;;;17.27;;
19329;SDS011;9799;48.214;16.388;2023-03-23T10:22:44;21.80;;;17.50;;
19329;SDS011;9799;48.214;16.388;2023-03-23T10:26:12;21.70;;;17.13;;
19329;SDS011;9799;48.214;16.388;2023-03-23T10:29:57;19.80;;;17.30;;
19329;SDS011;9799;48.214;16.388;2023-03-23T10:33:23;20.07;;;16.67;;
19329;SDS011;9799;48.214;16.388;2023-03-23T10:36:55;21.13;;;15.63;;
19329;SDS011;9799;48.214;16.388;2023-03-23T10:40:22;18.53;;;15.60;;
19329;SDS011;9799;48.214;16.388;2023-03-23T10:43:49;16.60;;;14.63;;
19329;SDS011;9799;48.214;16.388;2023-03-23T10:47:14;17.67;;;15.00;;
19329;SDS011;9799;48.214;16.388;2023-03-23T10:50:37;20.60;;;14.70;;
19329;SDS011;9799;48.214;16.388;2023-03-23T10:54:03;18.47;;;15.03;;
19329;SDS011;9799;48.214;16.388;2023-03-23T10:57:26;19.63;;;14.37;;
19329;SDS011;9799;48.214;16.388;2023-03-23T11:00:48;17.67;;;14.07;;
19329;SDS011;9799;48.214;16.388;2023-03-23T11:04:12;15.93;;;14.17;;
19329;SDS011;9799;48.214;16.388;2023-03-23T11:07:35;17.00;;;13.50;;
19329;SDS011;9799;48.214;16.388;2023-03-23T11:10:57;17.63;;;14.03;;
19329;SDS011;9799;48.214;16.388;2023-03-23T11:14:20;15.77;;;12.90;;
19329;SDS011;9799;48.214;16.388;2023-03-23T11:17:54;18.03;;;15.27;;
19329;SDS011;9799;48.214;16.388;2023-03-23T11:21:17;21.17;;;14.57;;
19329;SDS011;9799;48.214;16.388;2023-03-23T11:24:41;19.87;;;13.13;;
19329;SDS011;9799;48.214;16.388;2023-03-23T11:28:04;20.60;;;14.27;;
19329;SDS011;9799;48.214;16.388;2023-03-23T11:31:27;24.43;;;14.17;;
19329;SDS011;9799;48.214;16.388;2023-03-23T11:34:53;24.17;;;15.70;;
19329;SDS011;9799;48.214;16.388;2023-03-23T11:38:18;14.63;;;12.40;;
19329;SDS011;9799;48.214;16.388;2023-03-23T11:41:42;23.90;;;12.67;;
19329;SDS011;9799;48.214;16.388;2023-03-23T11:45:13;19.00;;;12.80;;
19329;SDS011;9799;48.214;16.388;2023-03-23T11:48:38;20.70;;;14.70;;
19329;SDS011;9799;48.214;16.388;2023-03-23T11:52:05;16.50;;;12.50;;
19329;SDS011;9799;48.214;16.388;2023-03-23T11:55:35;22.80;;;15.00;;
19329;SDS011;9799;48.214;16.388;2023-03-23T11:59:13;17.93;;;10.83;;
19329;SDS011;9799;48.214;16.388;2023-03-23T12:02:42;18.17;;;11.03;;
19329;SDS011;9799;48.214;16.388;2023-03-23T12:06:24;21.00;;;9.93;;
19329;SDS011;9799;48.214;16.388;2023-03-23T12:09:55;20.70;;;16.03;;
19329;SDS011;9799;48.214;16.388;2023-03-23T12:13:29;15.70;;;10.73;;
19329;SDS011;9799;48.214;16.388;2023-03-23T12:17:17;13.83;;;10.00;;
19329;SDS011;9799;48.214;16.388;2023-03-23T12:20:48;20.97;;;14.93;;
19329;SDS011;9799;48.214;16.388;2023-03-23T12:24:23;16.83;;;12.97;;
19329;SDS011;9799;48.214;16.388;2023-03-23T12:27:58;19.10;;;10.02;;
19329;SDS011;9799;48.214;16.388;2023-03-23T12:31:28;16.13;;;10.43;;
19329;SDS011;9799;48.214;16.388;2023-03-23T12:34:56;11.10;;;9.47;;
19329;SDS011;9799;48.214;16.388;2023-03-23T12:42:14;10.60;;;8.77;;
19329;SDS011;9799;48.214;16.388;2023-03-23T12:46:03;17.60;;;10.03;;
19329;SDS011;9799;48.214;16.388;2023-03-23T12:49:36;16.05;;;9.80;;
19329;SDS011;9799;48.214;16.388;2023-03-23T12:53:03;17.88;;;13.10;;
19329;SDS011;9799;48.214;16.388;2023-03-23T12:56:30;23.67;;;10.27;;
19329;SDS011;9799;48.214;16.388;2023-03-23T12:59:55;23.42;;;10.45;;
19329;SDS011;9799;48.214;16.388;2023-03-23T13:03:26;12.32;;;9.95;;
19329;SDS011;9799;48.214;16.388;2023-03-23T13:06:51;10.90;;;8.32;;
19329;SDS011;9799;48.214;16.388;2023-03-23T13:10:15;13.23;;;8.30;;
19329;SDS011;9799;48.214;16.388;2023-03-23T13:13:43;11.88;;;7.55;;
19329;SDS011;9799;48.214;16.388;2023-03-23T13:17:11;17.05;;;9.48;;
19329;SDS011;9799;48.214;16.388;2023-03-23T13:24:31;12.32;;;11.02;;
19329;SDS011;9799;48.214;16.388;2023-03-23T13:27:57;10.38;;;9.38;;
19329;SDS011;9799;48.214;16.388;2023-03-23T13:31:20;10.38;;;7.10;;
19329;SDS011;9799;48.214;16.388;2023-03-23T13:34:46;12.35;;;11.05;;
19329;SDS011;9799;48.214;16.388;2023-03-23T13:38:12;9.55;;;8.63;;
19329;SDS011;9799;48.214;16.388;2023-03-23T13:41:46;8.00;;;6.25;;
19329;SDS011;9799;48.214;16.388;2023-03-23T13:45:18;11.15;;;9.55;;
19329;SDS011;9799;48.214;16.388;2023-03-23T13:48:43;10.25;;;9.25;;
19329;SDS011;9799;48.214;16.388;2023-03-23T13:52:16;9.13;;;8.23;;
19329;SDS011;9799;48.214;16.388;2023-03-23T13:55:47;8.70;;;7.80;;
19329;SDS011;9799;48.214;16.388;2023-03-23T13:59:14;7.93;;;7.20;;
19329;SDS011;9799;48.214;16.388;2023-03-23T14:02:37;7.13;;;6.53;;
19329;SDS011;9799;48.214;16.388;2023-03-23T14:06:01;11.57;;;7.60;;
19329;SDS011;9799;48.214;16.388;2023-03-23T14:09:28;7.43;;;6.68;;
19329;SDS011;9799;48.214;16.388;2023-03-23T14:12:53;10.40;;;7.53;;
19329;SDS011;9799;48.214;16.388;2023-03-23T14:16:17;10.90;;;7.60;;
19329;SDS011;9799;48.214;16.388;2023-03-23T14:19:40;10.27;;;6.65;;
19329;SDS011;9799;48.214;16.388;2023-03-23T14:23:05;7.35;;;6.18;;
19329;SDS011;9799;48.214;16.388;2023-03-23T14:26:26;8.25;;;6.30;;
19329;SDS011;9799;48.214;16.388;2023-03-23T14:29:57;7.70;;;6.07;;
19329;SDS011;9799;48.214;16.388;2023-03-23T14:33:20;8.52;;;6.15;;
19329;SDS011;9799;48.214;16.388;2023-03-23T14:36:42;10.18;;;6.93;;
19329;SDS011;9799;48.214;16.388;2023-03-23T14:40:04;13.93;;;7.93;;
19329;SDS011;9799;48.214;16.388;2023-03-23T14:43:27;10.35;;;9.18;;
19329;SDS011;9799;48.214;16.388;2023-03-23T14:46:48;7.00;;;5.95;;
19329;SDS011;9799;48.214;16.388;2023-03-23T14:50:23;9.05;;;5.90;;
19329;SDS011;9799;48.214;16.388;2023-03-23T14:53:47;7.30;;;5.75;;
19329;SDS011;9799;48.214;16.388;2023-03-23T14:57:11;6.00;;;5.30;;
19329;SDS011;9799;48.214;16.388;2023-03-23T15:00:34;6.55;;;5.45;;
19329;SDS011;9799;48.214;16.388;2023-03-23T15:04:01;11.18;;;6.57;;
19329;SDS011;9799;48.214;16.388;2023-03-23T15:07:26;7.28;;;5.80;;
19329;SDS011;9799;48.214;16.388;2023-03-23T15:10:51;8.85;;;6.40;;
19329;SDS011;9799;48.214;16.388;2023-03-23T15:14:15;10.57;;;6.93;;
19329;SDS011;9799;48.214;16.388;2023-03-23T15:17:40;7.78;;;6.07;;
19329;SDS011;9799;48.214;16.388;2023-03-23T15:21:11;6.95;;;6.00;;
19329;SDS011;9799;48.214;16.388;2023-03-23T15:24:40;6.43;;;5.82;;
19329;SDS011;9799;48.214;16.388;2023-03-23T15:28:07;6.68;;;5.53;;
19329;SDS011;9799;48.214;16.388;2023-03-23T15:31:38;7.18;;;5.47;;
19329;SDS011;9799;48.214;16.388;2023-03-23T15:35:03;6.78;;;6.10;;
19329;SDS011;9799;48.214;16.388;2023-03-23T15:38:31;6.47;;;5.85;;
19329;SDS011;9799;48.214;16.388;2023-03-23T15:41:56;7.28;;;5.20;;
19329;SDS011;9799;48.214;16.388;2023-03-23T15:45:23;6.65;;;4.63;;
19329;SDS011;9799;48.214;16.388;2023-03-23T15:48:46;6.57;;;4.93;;
19329;SDS011;9799;48.214;16.388;2023-03-23T15:52:10;10.45;;;4.50;;
19329;SDS011;9799;48.214;16.388;2023-03-23T15:55:35;7.50;;;4.53;;
19329;SDS011;9799;48.214;16.388;2023-03-23T15:58:59;5.47;;;4.97;;
19329;SDS011;9799;48.214;16.388;2023-03-23T16:02:21;7.15;;;4.75;;
19329;SDS011;9799;48.214;16.388;2023-03-23T16:05:44;7.20;;;5.38;;
19329;SDS011;9799;48.214;16.388;2023-03-23T16:09:06;6.95;;;6.10;;
19329;SDS011;9799;48.214;16.388;2023-03-23T16:12:29;9.93;;;6.85;;
19329;SDS011;9799;48.214;16.388;2023-03-23T16:15:52;9.25;;;6.93;;
19329;SDS011;9799;48.214;16.388;2023-03-23T16:19:14;7.45;;;6.63;;
19329;SDS011;9799;48.214;16.388;2023-03-23T16:22:36;8.63;;;6.72;;
19329;SDS011;9799;48.214;16.388;2023-03-23T16:25:57;7.70;;;6.90;;
19329;SDS011;9799;48.214;16.388;2023-03-23T16:29:19;8.15;;;7.32;;
19329;SDS011;9799;48.214;16.388;2023-03-23T16:32:41;10.18;;;7.07;;
19329;SDS011;9799;48.214;16.388;2023-03-23T16:36:03;8.73;;;7.10;;
19329;SDS011;9799;48.214;16.388;2023-03-23T16:39:25;12.52;;;7.50;;
19329;SDS011;9799;48.214;16.388;2023-03-23T16:42:47;9.57;;;7.50;;
19329;SDS011;9799;48.214;16.388;2023-03-23T16:46:09;9.73;;;7.90;;
19329;SDS011;9799;48.214;16.388;2023-03-23T16:49:33;9.00;;;7.72;;
19329;SDS011;9799;48.214;16.388;2023-03-23T16:52:54;18.73;;;15.73;;
19329;SDS011;9799;48.214;16.388;2023-03-23T16:56:15;10.52;;;8.85;;
19329;SDS011;9799;48.214;16.388;2023-03-23T16:59:36;13.23;;;8.15;;
19329;SDS011;9799;48.214;16.388;2023-03-23T17:02:58;15.32;;;8.38;;
19329;SDS011;9799;48.214;16.388;2023-03-23T17:06:20;13.93;;;9.52;;
19329;SDS011;9799;48.214;16.388;2023-03-23T17:09:42;10.77;;;9.20;;
19329;SDS011;9799;48.214;16.388;2023-03-23T17:13:03;14.23;;;9.25;;
19329;SDS011;9799;48.214;16.388;2023-03-23T17:16:25;14.48;;;9.65;;
19329;SDS011;9799;48.214;16.388;2023-03-23T17:19:46;11.40;;;9.35;;
19329;SDS011;9799;48.214;16.388;2023-03-23T17:23:09;12.25;;;10.25;;
19329;SDS011;9799;48.214;16.388;2023-03-23T17:26:31;15.27;;;10.63;;
19329;SDS011;9799;48.214;16.388;2023-03-23T17:29:52;12.95;;;10.82;;
19329;SDS011;9799;48.214;16.388;2023-03-23T17:33:14;13.82;;;9.50;;
19329;SDS011;9799;48.214;16.388;2023-03-23T17:36:35;14.20;;;10.98;;
19329;SDS011;9799;48.214;16.388;2023-03-23T17:39:58;11.82;;;10.48;;
19329;SDS011;9799;48.214;16.388;2023-03-23T17:43:20;14.45;;;11.18;;
19329;SDS011;9799;48.214;16.388;2023-03-23T17:46:42;16.05;;;11.77;;
19329;SDS011;9799;48.214;16.388;2023-03-23T17:50:04;19.55;;;12.02;;
19329;SDS011;9799;48.214;16.388;2023-03-23T17:53:28;17.80;;;12.43;;
19329;SDS011;9799;48.214;16.388;2023-03-23T17:56:56;18.33;;;13.45;;
19329;SDS011;9799;48.214;16.388;2023-03-23T18:00:19;17.52;;;13.80;;
19329;SDS011;9799;48.214;16.388;2023-03-23T18:03:42;16.45;;;13.85;;
19329;SDS011;9799;48.214;16.388;2023-03-23T18:07:04;16.92;;;13.63;;
19329;SDS011;9799;48.214;16.388;2023-03-23T18:10:27;16.67;;;13.48;;
19329;SDS011;9799;48.214;16.388;2023-03-23T18:13:50;18.25;;;12.88;;
19329;SDS011;9799;48.214;16.388;2023-03-23T18:17:15;19.83;;;14.30;;
19329;SDS011;9799;48.214;16.388;2023-03-23T18:20:37;18.42;;;13.15;;
19329;SDS011;9799;48.214;16.388;2023-03-23T18:23:59;15.18;;;13.57;;
19329;SDS011;9799;48.214;16.388;2023-03-23T18:27:20;17.75;;;14.77;;
19329;SDS011;9799;48.214;16.388;2023-03-23T18:30:44;19.67;;;14.60;;
19329;SDS011;9799;48.214;16.388;2023-03-23T18:34:07;17.10;;;12.68;;
19329;SDS011;9799;48.214;16.388;2023-03-23T18:37:31;15.50;;;13.55;;
19329;SDS011;9799;48.214;16.388;2023-03-23T18:40:55;18.17;;;15.85;;
19329;SDS011;9799;48.214;16.388;2023-03-23T18:44:19;20.67;;;14.55;;
19329;SDS011;9799;48.214;16.388;2023-03-23T18:47:43;25.67;;;14.75;;
19329;SDS011;9799;48.214;16.388;2023-03-23T18:51:05;19.17;;;15.55;;
19329;SDS011;9799;48.214;16.388;2023-03-23T18:54:28;21.67;;;16.10;;
19329;SDS011;9799;48.214;16.388;2023-03-23T18:57:53;21.08;;;15.32;;
19329;SDS011;9799;48.214;16.388;2023-03-23T19:01:16;21.67;;;15.25;;
19329;SDS011;9799;48.214;16.388;2023-03-23T19:04:41;20.75;;;15.75;;
19329;SDS011;9799;48.214;16.388;2023-03-23T19:08:04;19.67;;;15.43;;
19329;SDS011;9799;48.214;16.388;2023-03-23T19:11:27;22.75;;;15.45;;
19329;SDS011;9799;48.214;16.388;2023-03-23T19:14:48;26.77;;;16.27;;
19329;SDS011;9799;48.214;16.388;2023-03-23T19:18:12;26.67;;;16.85;;
19329;SDS011;9799;48.214;16.388;2023-03-23T19:21:35;22.35;;;16.52;;
19329;SDS011;9799;48.214;16.388;2023-03-23T19:24:59;18.38;;;15.30;;
19329;SDS011;9799;48.214;16.388;2023-03-23T19:28:26;24.98;;;17.98;;
19329;SDS011;9799;48.214;16.388;2023-03-23T19:31:49;26.02;;;16.40;;
19329;SDS011;9799;48.214;16.388;2023-03-23T19:35:10;27.25;;;17.40;;
19329;SDS011;9799;48.214;16.388;2023-03-23T19:38:35;25.20;;;18.30;;
19329;SDS011;9799;48.214;16.388;2023-03-23T19:41:57;27.77;;;19.95;;
19329;SDS011;9799;48.214;16.388;2023-03-23T19:45:19;27.27;;;18.90;;
19329;SDS011;9799;48.214;16.388;2023-03-23T19:48:41;25.73;;;18.00;;
19329;SDS011;9799;48.214;16.388;2023-03-23T19:52:05;22.67;;;19.67;;
19329;SDS011;9799;48.214;16.388;2023-03-23T19:55:30;27.15;;;18.13;;
19329;SDS011;9799;48.214;16.388;2023-03-23T19:58:52;30.70;;;20.90;;
19329;SDS011;9799;48.214;16.388;2023-03-23T20:02:17;32.97;;;21.08;;
19329;SDS011;9799;48.214;16.388;2023-03-23T20:05:39;23.27;;;19.55;;
19329;SDS011;9799;48.214;16.388;2023-03-23T20:09:02;26.73;;;19.27;;